HEGNHELX

Guest
Details From HEGN - HURGHADA INTL
To HELX - LUXOR INTL
Flight Number -
Tags generated
Created
Modified
Stats Distance 108 nm / 200 km
Max Altitude 1,200 ft / 366 m
Waypoints 3
Social Downloads 11
Likes 0
Share VATSIM

Download

Looking for another format? Having issues loading an existing format? Contact us
Advertisement - Login to hide

Notes

Basic altitude profile: - Ascent Rate: 2500ft/min - Ascent Speed: 250kts - Cruise Altitude: 35000ft - Cruise Speed: 420kts - Descent Rate: 1500ft/min - Descent Speed: 250kts Options: - Use NATs: yes - Use PACOTS: yes - Use low airways: yes - Use high airways: yes

Route

HEGN LXR HELX

ID Type Via Altitude Latitude Longitude Leg Dist Tot Dist Heading (true) Name
O HEGN APT - 0 ft / 0 m 27.17831˚ 33.79940˚ - 0 nm - HURGHADA INTL
LXR VOR - 1,200 ft / 366 m 25.74939˚ 32.76858˚ 102 nm 102 nm 213° / 213° LUXOR VOR-DME
O HELX APT - 0 ft / 0 m 25.67109˚ 32.70640˚ 5 nm 107 nm 216° / 216° LUXOR INTL

Altitude Profile

Advertisement - Login to hide

HEGN

Details ICAO HEGN (HRG)
Name HURGHADA INTL
Region Egypt
Timezone Africa/Cairo (UTC+2.0)
Stats Elevation 52 ft / 16 m (AMSL)
Location 27.178308° 33.799397°
Runways 1
Magnetic Variation 4.212° E

METAR

HEGN 141300Z 01020KT CAVOK 24/10 Q1015 NOSIG

Decode

TAF

Not found

Departure Runways

ID Width Length Bearing (true) Bearing (mag) Surface Threshold Offset Overrun Length
16 148 ft / 45 m 13,169 ft / 4,014 m 165.29° 161.08° Asphalt 985 ft / 300 m 0 ft / 0 m
34 148 ft / 45 m 13,169 ft / 4,014 m 345.29° 341.08° Asphalt 0 ft / 0 m 200 ft / 61 m

HELX

Details ICAO HELX (LXR)
Name LUXOR INTL
Region Egypt
Timezone Africa/Cairo (UTC+2.0)
Stats Elevation 294 ft / 90 m (AMSL)
Location 25.671086° 32.706403°
Runways 1
Magnetic Variation 4.083° E

METAR

HELX 141300Z 25003KT CAVOK 24/07 Q1015 NOSIG

Decode

TAF

TAF HELX 141100Z 1412/1518 32010KT CAVOK

Decode

Destination Runways

ID Width Length Bearing (true) Bearing (mag) Surface Threshold Offset Overrun Length
02 148 ft / 45 m 9,874 ft / 3,010 m 22.46° 18.38° Asphalt 0 ft / 0 m 215 ft / 66 m
20 148 ft / 45 m 9,874 ft / 3,010 m 202.47° 198.39° Asphalt 0 ft / 0 m 215 ft / 66 m

Approach Navaids

Runway Type Ident Frequency Range Bearing (true) Bearing (mag) Slope Elevation
20 Localiser XIL 111.10 MHz 18 nm / 33 km 202.41° 198.33° - 303 ft / 92 m (AMSL)
20 Glidescope XIL 111.10 MHz 10 nm / 19 km 202.46° 198.38° 3.00° 326 ft / 99 m (AMSL)
20 DME XIL 111.10 MHz 18 nm / 33 km - - - 326 ft / 99 m (AMSL)

Popular Alternatives